Current | Forecast
Updated: 3:30 AM +07 on February 22, 2018
Observed at Nizhnevartovsk, Russia
Temperature 12°F
Windchill -4°F
Humidity 92%
Dew Point 10°F
Wind East at 16 mph
Pressure 30.01 in (Steady)
Conditions Low Drifting Snow
Visibility 6.2 miles
UV N/A
Clouds
Yesterday's Maximum 16°F
Yesterday's Minimum 12°F approx.
Yesterday's Heating Degree Days 51 approx.
Sunrise7:11 AM +05
Sunset4:53 PM +05
Moon Rise9:18 AM +05
Moon Set
Moon PhaseMoon Phase
Waxing Crescent
Raw METARMETAR USNN 212030Z 09007MPS 9999 DRSN NSC M11/M12 Q1016 R03/35//56 NOSIG RMK QFE758


Monday
. High: 55° F.
Tuesday
. High: 66° F.
Wednesday
. High: 68° F.
Thursday
. High: 62° F.
Friday
. High: 46° F.
Saturday
. High: 53° F.
Sunday
. High: 59° F.
Monday
. High: 64° F.

Units: English | Metric

Find the Weather for any City, State or Zipcode, or Country:

U.S. State List | Severe Weather | Tropical Storms | Ski Conditions
United States | Canada | Central America | South America | Asia | Europe | Australia | Africa | Islands

Weather Underground

© Copyright 2018
The Weather Company, LLC